Vienna, OH (44473)

7:05 AM EDT on August 29, 2015 (GMT -0400)
Howland | | Change Station
CLOSE
Current Station
Personal Weather Station
Location: Warren, OH
Elevation: 988 ft
Nearby Weather Stations

Elev 988 ft 41.25 °N, 80.74 °W | Updated 42 seconds ago

Shallow Fog
Shallow Fog
54.1 °F
Feels Like 54.1 °F
N
0.0
Wind Variable Wind from ESE
Gusts 0.0 mph

Today
High -- | Low -- °F
--% Chance of Precip.
Yesterday
High -- | Low -- °F
Precip. -- in
6:45 AM 8:00 PM
Full, 100% visible
Pressure 30.17 in
Visibility 8.0 miles
Clouds Scattered Clouds 15000 ft
Mostly Cloudy 25000 ft
Dew Point 53 °F
Humidity 97%
Rainfall 0.00 in
Snow Depth Not available.
UV 0 out of 12
Pollen 9.80 out of 12
Air Quality Not available.
Flu Activity Not available.
METAR KYNG 291051Z 10003KT 8SM MIFG SCT150 BKN250 12/12 A3017 RMK AO2 SLP214 T01220117
Pressure 30.17 in
Visibility 8.0 miles
Clouds Scattered Clouds 15000 ft
Mostly Cloudy 25000 ft
Dew Point 53 °F
Humidity 97%
Rainfall 0.00 in
Snow Depth Not available.
UV 0 out of 12
Pollen 9.80 out of 12
Air Quality Not available.
Flu Activity Not available.
METAR KYNG 291051Z 10003KT 8SM MIFG SCT150 BKN250 12/12 A3017 RMK AO2 SLP214 T01220117

10-Day Weather Forecast

×

Almanac

Astronomy

Aug. 29, 2015 Rise Set
Actual Time
Civil Twilight
Nautical Twilight
Astronomical Twilight
Moon
Length of Visible Light
Length of Day
Tomorrow will be .
, % of the Moon is Illuminated

Today's Extremes

State Highs State Lows

Community

WunderPhotos

Upload Photos

1,850,651 photos uploaded!

WunderBlogs® & News

Nearby

Air Quality

  Air Quality AQ Index Pollutant
Not available.

Snow Depth

Station Depth Elevation

Earthquake Activity

City Distance Mag. Time & Date
Minimum magnitude displayed is 2.5.

Coastal Water Temperatures

Place Temperature

Stations

Nearby Weather Stations

Station Location Temp. Windchill Dew Point Humidity Wind Precip. Elev Updated Type